Homer City, PA (15748)

12:38 PM EST on December 07, 2016 (GMT -0500)
Ridgekid | | Change Station

Elev 2034 ft 40.50 °N, 79.01 °W | Updated 10 seconds ago

Clear
Clear
42.8 °F
Feels Like 41 °F
N
3.1
Wind Variable Wind from WSW
Gusts 4.5 mph

Today
High -- | Low -- °F
--% Chance of Precip.
Yesterday
High -- | Low -- °F
Precip. -- in
Pressure 30.04 in
Visibility 10.0 miles
Clouds Clear
Windchill 41 °F
Dew Point 30 °F
Humidity 61%
Rainfall 0.05 in
Snow Depth Not available.
7:27 AM 4:49 PM
First Quarter, 54% visible
METAR KIDI 071735Z AUTO VRB05G16KT 10SM CLR 04/M03 A3004 RMK A01
Pressure 30.04 in
Visibility 10.0 miles
Clouds Clear
Windchill 41 °F
Dew Point 30 °F
Humidity 61%
Rainfall 0.05 in
Snow Depth Not available.
7:27 AM 4:49 PM
First Quarter, 54% visible
METAR KIDI 071735Z AUTO VRB05G16KT 10SM CLR 04/M03 A3004 RMK A01

10-Day Weather Forecast

Almanac

Astronomy

Dec. 07, 2016 Rise Set
Actual Time
Civil Twilight
Nautical Twilight
Astronomical Twilight
Moon
Length of Visible Light
Length of Day
Tomorrow will be .
, % of the Moon is Illuminated

Today's Extremes

State Highs State Lows

Community

WunderPhotos

Upload Photos

1,956,155 photos uploaded!

WunderBlog® & News

Nearby

Air Quality

  Air Quality AQ Index Pollutant
Not available.

Snow Depth

Station Depth Elevation

Earthquake Activity

City Distance Mag. Time & Date
Minimum magnitude displayed is 2.5.

Coastal Water Temperatures

Place Temperature

Stations

Nearby Weather Stations

Station Location Temp. Windchill Dew Point Humidity Wind Precip. Elev Updated Type
                   

Watches & Warnings

There are currently no watches in effect.